Time;durP1;ratioP1;P1;durP2;ratioP2;P2;SDS_P1;SDS_P2;PMS_P1;PMS_P2;Temp;Humidity;BMP_temperature;BMP_pressure;BME280_temperature;BME280_humidity;BME280_pressure;Samples;Min_cycle;Max_cycle;Signal;HPM_P1;HPM_P2
2022/01/19 00:04:37;;;;;;;14.27;9.00;;;;;;;;;;10481451;27;20494;-56
2022/01/19 00:09:36;;;;;;;15.43;8.27;;;;;;;;;;10480591;27;20089;-51
2022/01/19 00:14:35;;;;;;;11.52;6.35;;;;;;;;;;10480830;27;20537;-53
2022/01/19 00:19:33;;;;;;;17.75;9.93;;;;;;;;;;10480691;27;20078;-51
2022/01/19 00:24:31;;;;;;;14.57;7.90;;;;;;;;;;10480816;27;20518;-51
2022/01/19 00:29:31;;;;;;;9.52;5.53;;;;;;;;;;10481911;27;20066;-52
2022/01/19 00:34:29;;;;;;;7.32;5.20;;;;;;;;;;10481779;27;20058;-54
2022/01/19 00:39:31;;;;;;;6.65;5.25;;;;;;;;;;10480626;27;20081;-52
2022/01/19 00:44:30;;;;;;;17.65;10.00;;;;;;;;;;10479467;27;20055;-51
2022/01/19 00:49:29;;;;;;;6.75;4.55;;;;;;;;;;10461274;27;20285;-51
2022/01/19 00:54:28;;;;;;;11.13;6.10;;;;;;;;;;10481437;27;20041;-51
2022/01/19 00:59:26;;;;;;;5.82;3.22;;;;;;;;;;10461803;27;20049;-51
2022/01/19 01:04:26;;;;;;;8.95;4.50;;;;;;;;;;10461708;27;20396;-51
2022/01/19 01:09:25;;;;;;;12.52;6.25;;;;;;;;;;10462332;27;20055;-56
2022/01/19 01:19:39;;;;;;;;;;;;;;;;;;10480776;27;20350;-56
2022/01/19 01:24:39;;;;;;;8.30;5.78;;;;;;;;;;10479942;27;19923;-55
2022/01/19 01:29:37;;;;;;;8.05;5.03;;;;;;;;;;10479613;27;20054;-54
2022/01/19 01:34:35;;;;;;;8.00;4.95;;;;;;;;;;10460188;27;20038;-55
2022/01/19 01:39:34;;;;;;;11.00;6.30;;;;;;;;;;10461108;27;20055;-55
2022/01/19 01:44:37;;;;;;;11.38;5.38;;;;;;;;;;10464400;27;20043;-51
2022/01/19 01:53:25;;;;;;;9.80;7.03;;;;;;;;;;10468556;27;20058;-54
2022/01/19 01:55:05;;;;;;;9.82;6.45;;;;;;;;;;10467995;27;20118;-53
2022/01/19 02:00:06;;;;;;;12.25;7.00;;;;;;;;;;10468173;27;20411;-54
2022/01/19 02:05:14;;;;;;;12.40;7.32;;;;;;;;;;10492734;27;20053;-50
2022/01/19 02:10:29;;;;;;;12.05;7.15;;;;;;;;;;10468202;27;20612;-52
2022/01/19 02:15:53;;;;;;;18.87;9.20;;;;;;;;;;10467646;27;20047;-53
2022/01/19 02:26:15;;;;;;;10.35;6.35;;;;;;;;;;10467241;27;20042;-54
2022/01/19 02:36:38;;;;;;;17.58;8.63;;;;;;;;;;10485215;27;20335;-49
2022/01/19 02:41:39;;;;;;;14.13;9.25;;;;;;;;;;10485306;27;20070;-52
2022/01/19 02:46:54;;;;;;;15.57;8.30;;;;;;;;;;10484557;27;20070;-53
2022/01/19 02:51:54;;;;;;;9.97;7.43;;;;;;;;;;10484886;27;20074;-54
2022/01/19 02:56:58;;;;;;;13.10;7.22;;;;;;;;;;10484679;27;20413;-51
2022/01/19 03:12:31;;;;;;;9.70;6.50;;;;;;;;;;10465156;27;20161;-51
2022/01/19 03:17:29;;;;;;;13.30;6.65;;;;;;;;;;10463326;27;20515;-52
2022/01/19 03:22:34;;;;;;;11.98;7.13;;;;;;;;;;10464342;27;20051;-54
2022/01/19 03:27:33;;;;;;;8.68;5.82;;;;;;;;;;10464003;27;20050;-53
2022/01/19 03:32:32;;;;;;;11.73;7.05;;;;;;;;;;10481682;27;20069;-52
2022/01/19 03:37:31;;;;;;;15.55;6.63;;;;;;;;;;10481576;27;20468;-53
2022/01/19 03:42:30;;;;;;;14.50;7.43;;;;;;;;;;10464056;27;20082;-53
2022/01/19 03:47:32;;;;;;;11.38;7.53;;;;;;;;;;10463691;27;20050;-54
2022/01/19 03:52:31;;;;;;;12.27;6.43;;;;;;;;;;10482213;27;20074;-52
2022/01/19 03:57:30;;;;;;;13.32;7.90;;;;;;;;;;10463510;27;20062;-55
2022/01/19 04:02:28;;;;;;;14.45;10.60;;;;;;;;;;10462578;27;20169;-50
2022/01/19 04:07:27;;;;;;;18.05;10.50;;;;;;;;;;10462178;27;20084;-51
2022/01/19 04:12:44;;;;;;;11.18;7.97;;;;;;;;;;10461977;27;20050;-53
2022/01/19 04:17:50;;;;;;;21.00;12.15;;;;;;;;;;10462112;27;20035;-53
2022/01/19 04:22:48;;;;;;;13.43;8.57;;;;;;;;;;10461530;27;20074;-52
2022/01/19 04:27:48;;;;;;;14.18;7.43;;;;;;;;;;10480917;27;20059;-53
2022/01/19 04:32:52;;;;;;;15.98;9.20;;;;;;;;;;10461950;27;20043;-54
2022/01/19 04:38:19;;;;;;;21.27;12.80;;;;;;;;;;10461293;27;20523;-53
2022/01/19 04:54:35;;;;;;;16.20;9.02;;;;;;;;;;10460699;27;20039;-54
2022/01/19 05:05:06;;;;;;;25.85;14.93;;;;;;;;;;10460241;27;20431;-52
2022/01/19 05:13:24;;;;;;;16.70;12.57;;;;;;;;;;10437337;27;20042;-51
2022/01/19 05:15:28;;;;;;;22.73;14.30;;;;;;;;;;10418372;27;20124;-53
2022/01/19 05:20:27;;;;;;;14.50;9.23;;;;;;;;;;10464807;27;20499;-54
2022/01/19 05:25:26;;;;;;;14.95;9.40;;;;;;;;;;10467632;27;20047;-53
2022/01/19 05:30:51;;;;;;;42.38;23.15;;;;;;;;;;10468337;27;20043;-52
2022/01/19 05:35:50;;;;;;;14.60;11.30;;;;;;;;;;10466905;27;20054;-52
2022/01/19 05:41:06;;;;;;;13.75;9.00;;;;;;;;;;10490138;27;20070;-54
2022/01/19 05:46:07;;;;;;;18.38;12.70;;;;;;;;;;10464184;27;20047;-52
2022/01/19 05:51:07;;;;;;;16.80;12.35;;;;;;;;;;10467873;27;20058;-52
2022/01/19 05:56:05;;;;;;;21.13;10.02;;;;;;;;;;10466842;27;20069;-49
2022/01/19 06:01:22;;;;;;;24.40;12.05;;;;;;;;;;10466130;27;20050;-52
2022/01/19 06:06:23;;;;;;;24.52;13.77;;;;;;;;;;10457156;27;20165;-53
2022/01/19 06:11:40;;;;;;;34.38;19.95;;;;;;;;;;10483472;27;20078;-52
2022/01/19 06:16:41;;;;;;;20.00;16.38;;;;;;;;;;10462147;27;20058;-55
2022/01/19 06:21:39;;;;;;;13.32;10.23;;;;;;;;;;10465289;27;20443;-54
2022/01/19 06:26:39;;;;;;;9.75;7.93;;;;;;;;;;10461366;27;20053;-53
2022/01/19 06:31:38;;;;;;;10.75;7.93;;;;;;;;;;10464518;27;20467;-53
2022/01/19 06:36:40;;;;;;;30.77;18.80;;;;;;;;;;10464513;27;20047;-54
2022/01/19 06:41:57;;;;;;;31.10;13.35;;;;;;;;;;10464057;27;20086;-54
2022/01/19 06:46:56;;;;;;;18.05;11.00;;;;;;;;;;10462472;27;20483;-55
2022/01/19 06:51:56;;;;;;;20.95;11.68;;;;;;;;;;10463506;27;20403;-55
2022/01/19 06:56:54;;;;;;;49.95;23.90;;;;;;;;;;10481779;27;20042;-54
2022/01/19 07:01:59;;;;;;;13.95;9.25;;;;;;;;;;10462868;27;20086;-54
2022/01/19 07:07:19;;;;;;;19.10;10.40;;;;;;;;;;10482952;27;20219;-54
2022/01/19 07:12:29;;;;;;;23.40;14.82;;;;;;;;;;10461730;27;20085;-54
2022/01/19 07:17:27;;;;;;;23.73;13.13;;;;;;;;;;10455001;27;20510;-53
2022/01/19 07:22:27;;;;;;;25.40;15.05;;;;;;;;;;10453833;27;20085;-51
2022/01/19 07:27:30;;;;;;;29.25;16.30;;;;;;;;;;10456381;27;20090;-53
2022/01/19 07:32:31;;;;;;;43.75;22.27;;;;;;;;;;10455670;27;20085;-53
2022/01/19 07:37:31;;;;;;;32.40;20.67;;;;;;;;;;10452715;27;20097;-54
2022/01/19 07:42:29;;;;;;;24.23;14.23;;;;;;;;;;10454150;27;20090;-55
2022/01/19 07:48:03;;;;;;;25.67;15.95;;;;;;;;;;10377598;27;20078;-55
2022/01/19 07:53:33;;;;;;;19.83;13.30;;;;;;;;;;10458618;27;20059;-55
2022/01/19 07:59:00;;;;;;;19.92;9.68;;;;;;;;;;10460414;27;20054;-54
2022/01/19 08:04:04;;;;;;;17.27;10.57;;;;;;;;;;10460756;27;20069;-51
2022/01/19 08:09:09;;;;;;;14.07;10.23;;;;;;;;;;10461059;27;20050;-53
2022/01/19 08:14:07;;;;;;;16.48;10.60;;;;;;;;;;10460579;27;20050;-53
2022/01/19 08:19:06;;;;;;;18.80;12.98;;;;;;;;;;10478914;27;20443;-52
2022/01/19 08:24:06;;;;;;;17.48;9.60;;;;;;;;;;10478340;27;20104;-54
2022/01/19 08:29:06;;;;;;;21.95;12.10;;;;;;;;;;10460876;27;20043;-54
2022/01/19 08:34:06;;;;;;;30.23;15.45;;;;;;;;;;10460493;27;20050;-51
2022/01/19 08:39:25;;;;;;;17.73;11.98;;;;;;;;;;10479769;27;20054;-55
2022/01/19 08:44:27;;;;;;;19.85;9.90;;;;;;;;;;10460868;27;20519;-54
2022/01/19 08:49:36;;;;;;;28.60;15.25;;;;;;;;;;10461241;27;20078;-52
2022/01/19 08:54:45;;;;;;;24.35;15.65;;;;;;;;;;10491184;27;20078;-54
2022/01/19 08:59:48;;;;;;;16.17;11.30;;;;;;;;;;10468259;27;20316;-54
2022/01/19 09:04:47;;;;;;;19.50;10.25;;;;;;;;;;10465493;27;20082;-54
2022/01/19 09:09:45;;;;;;;30.63;18.27;;;;;;;;;;10487497;27;20050;-54
2022/01/19 09:14:44;;;;;;;16.45;10.00;;;;;;;;;;10487489;27;20071;-52
2022/01/19 09:19:43;;;;;;;18.30;9.20;;;;;;;;;;10487514;27;20070;-54
2022/01/19 09:24:43;;;;;;;16.83;9.25;;;;;;;;;;10486453;27;20472;-53
2022/01/19 09:29:42;;;;;;;18.90;10.60;;;;;;;;;;10486489;27;20078;-54
2022/01/19 09:34:43;;;;;;;13.80;9.85;;;;;;;;;;10486586;27;20464;-53
2022/01/19 09:39:43;;;;;;;30.90;13.60;;;;;;;;;;10486711;27;20479;-52
2022/01/19 09:44:42;;;;;;;22.75;11.63;;;;;;;;;;10485530;27;20081;-54
2022/01/19 09:49:40;;;;;;;22.85;11.32;;;;;;;;;;10486101;27;20479;-54
2022/01/19 09:54:39;;;;;;;21.48;13.38;;;;;;;;;;10485391;27;20471;-51
2022/01/19 09:59:38;;;;;;;25.92;13.23;;;;;;;;;;10485192;27;20076;-53
2022/01/19 10:04:38;;;;;;;16.40;11.07;;;;;;;;;;10483834;27;20101;-54
2022/01/19 10:09:47;;;;;;;48.38;28.58;;;;;;;;;;10485717;27;20055;-57
2022/01/19 10:20:21;;;;;;;30.80;16.77;;;;;;;;;;10485526;27;20503;-49
2022/01/19 10:25:24;;;;;;;19.58;11.55;;;;;;;;;;10484917;27;20089;-53
2022/01/19 10:30:25;;;;;;;17.00;11.93;;;;;;;;;;10485040;27;20132;-51
2022/01/19 10:35:25;;;;;;;20.15;11.73;;;;;;;;;;10484203;27;20039;-53
2022/01/19 10:40:23;;;;;;;17.88;11.20;;;;;;;;;;10485118;27;20475;-51
2022/01/19 10:45:21;;;;;;;17.55;11.18;;;;;;;;;;10484716;27;20078;-51
2022/01/19 10:50:23;;;;;;;14.05;8.20;;;;;;;;;;10484139;27;20074;-51
2022/01/19 10:55:28;;;;;;;61.78;33.47;;;;;;;;;;10483480;27;20047;-50
2022/01/19 11:00:29;;;;;;;18.50;9.75;;;;;;;;;;10481465;27;20047;-54
2022/01/19 11:05:42;;;;;;;19.45;11.77;;;;;;;;;;10483770;27;20078;-54
2022/01/19 11:10:40;;;;;;;83.38;41.10;;;;;;;;;;10482946;27;20039;-54
2022/01/19 11:15:38;;;;;;;20.13;11.60;;;;;;;;;;10481947;27;20050;-53
2022/01/19 11:20:46;;;;;;;24.65;14.45;;;;;;;;;;10481484;27;20101;-54
2022/01/19 11:25:49;;;;;;;19.98;12.55;;;;;;;;;;10480986;27;20078;-50
2022/01/19 11:30:47;;;;;;;15.43;9.15;;;;;;;;;;10480754;27;20081;-52
2022/01/19 11:35:48;;;;;;;22.67;13.80;;;;;;;;;;10481126;27;20077;-53
2022/01/19 11:40:47;;;;;;;18.08;12.40;;;;;;;;;;10480711;27;20043;-50
2022/01/19 11:45:45;;;;;;;16.95;8.77;;;;;;;;;;10481015;27;20070;-51
2022/01/19 11:50:44;;;;;;;29.10;17.23;;;;;;;;;;10461451;27;20418;-53
2022/01/19 11:55:59;;;;;;;10.68;8.02;;;;;;;;;;10479825;27;20030;-53
2022/01/19 12:00:59;;;;;;;23.45;10.30;;;;;;;;;;10480056;27;20046;-53
2022/01/19 12:05:58;;;;;;;18.00;11.05;;;;;;;;;;10479709;27;20070;-52
2022/01/19 12:11:01;;;;;;;13.75;10.23;;;;;;;;;;10459913;27;20061;-55
2022/01/19 12:16:12;;;;;;;11.27;7.22;;;;;;;;;;10479750;27;20077;-51
2022/01/19 12:21:11;;;;;;;14.17;8.63;;;;;;;;;;10477435;27;20042;-53
2022/01/19 12:26:10;;;;;;;14.40;8.50;;;;;;;;;;10477962;27;20090;-53
2022/01/19 12:31:27;;;;;;;16.50;8.50;;;;;;;;;;10478175;27;20078;-53
2022/01/19 12:36:43;;;;;;;19.98;11.20;;;;;;;;;;10478702;27;20051;-54
2022/01/19 12:41:53;;;;;;;18.92;11.45;;;;;;;;;;10480216;27;20162;-52
2022/01/19 12:46:52;;;;;;;11.05;7.43;;;;;;;;;;10476480;27;20082;-53
2022/01/19 12:51:51;;;;;;;11.85;6.63;;;;;;;;;;10474142;27;20150;-54
2022/01/19 12:56:56;;;;;;;48.35;25.13;;;;;;;;;;10476477;27;20034;-54
2022/01/19 13:01:57;;;;;;;16.80;11.00;;;;;;;;;;10474012;27;20114;-53
2022/01/19 13:07:13;;;;;;;13.18;8.80;;;;;;;;;;10473222;27;20078;-52
2022/01/19 13:12:12;;;;;;;20.27;11.90;;;;;;;;;;10473982;27;20074;-53
2022/01/19 13:17:11;;;;;;;27.65;17.83;;;;;;;;;;10473896;27;20074;-50
2022/01/19 13:22:30;;;;;;;32.17;17.92;;;;;;;;;;10472215;27;20086;-54
2022/01/19 13:27:31;;;;;;;18.95;12.73;;;;;;;;;;10474070;27;20070;-55
2022/01/19 13:32:29;;;;;;;24.08;13.52;;;;;;;;;;10475846;27;20427;-54
2022/01/19 13:37:32;;;;;;;15.88;12.13;;;;;;;;;;10475742;27;20094;-53
2022/01/19 13:42:37;;;;;;;20.13;13.02;;;;;;;;;;10482858;27;20042;-54
2022/01/19 13:47:52;;;;;;;28.63;17.02;;;;;;;;;;10485333;27;20130;-50
2022/01/19 13:52:52;;;;;;;29.50;17.90;;;;;;;;;;10485413;27;20457;-53
2022/01/19 13:57:50;;;;;;;20.02;10.32;;;;;;;;;;10484576;27;20046;-55
2022/01/19 14:02:57;;;;;;;14.82;8.50;;;;;;;;;;10484484;27;20287;-53
2022/01/19 14:08:04;;;;;;;14.68;9.30;;;;;;;;;;10482886;27;20074;-55
2022/01/19 14:13:17;;;;;;;39.25;21.75;;;;;;;;;;10482802;27;20452;-55
2022/01/19 14:18:15;;;;;;;19.40;11.63;;;;;;;;;;10481728;27;20077;-54
2022/01/19 14:23:18;;;;;;;27.13;14.38;;;;;;;;;;10483528;27;20069;-53
2022/01/19 14:28:16;;;;;;;36.75;21.80;;;;;;;;;;10483814;27;20078;-50
2022/01/19 14:33:16;;;;;;;51.03;26.65;;;;;;;;;;10485379;27;20070;-54
2022/01/19 14:38:23;;;;;;;35.08;19.35;;;;;;;;;;10484726;27;20057;-52
2022/01/19 14:43:23;;;;;;;34.10;20.52;;;;;;;;;;10485172;27;20079;-50
2022/01/19 14:48:23;;;;;;;28.55;14.65;;;;;;;;;;10484472;27;20476;-52
2022/01/19 14:53:23;;;;;;;120.60;60.50;;;;;;;;;;10484764;27;20074;-55
2022/01/19 14:58:25;;;;;;;85.85;41.40;;;;;;;;;;10484800;27;20042;-53
2022/01/19 15:03:23;;;;;;;107.72;55.55;;;;;;;;;;10484556;27;20115;-55
2022/01/19 15:08:23;;;;;;;99.78;55.08;;;;;;;;;;10478469;27;20074;-56
2022/01/19 15:13:21;;;;;;;71.57;43.50;;;;;;;;;;10475853;27;20224;-55
2022/01/19 15:18:20;;;;;;;71.60;43.25;;;;;;;;;;10479132;27;20046;-55
2022/01/19 15:23:21;;;;;;;52.00;31.02;;;;;;;;;;10479813;27;20066;-54
2022/01/19 15:28:20;;;;;;;43.20;25.17;;;;;;;;;;10479553;27;20413;-54
2022/01/19 15:33:20;;;;;;;40.90;27.40;;;;;;;;;;10480199;27;20043;-53
2022/01/19 15:38:18;;;;;;;60.00;33.92;;;;;;;;;;10478702;27;20158;-54
2022/01/19 15:43:18;;;;;;;48.90;30.63;;;;;;;;;;10479565;27;20039;-53
2022/01/19 15:48:18;;;;;;;57.50;41.30;;;;;;;;;;10475718;27;20066;-55
2022/01/19 15:53:17;;;;;;;66.53;38.53;;;;;;;;;;10476682;27;20095;-51
2022/01/19 15:58:16;;;;;;;42.05;26.52;;;;;;;;;;10478643;27;20038;-52
2022/01/19 16:03:15;;;;;;;37.33;26.42;;;;;;;;;;10479058;27;20167;-50
2022/01/19 16:08:15;;;;;;;36.60;24.08;;;;;;;;;;10481379;27;20074;-55
2022/01/19 16:13:13;;;;;;;65.90;38.53;;;;;;;;;;10482182;27;20039;-52
2022/01/19 16:18:14;;;;;;;60.95;38.00;;;;;;;;;;10481862;27;20077;-54
2022/01/19 16:28:30;;;;;;;57.38;35.70;;;;;;;;;;10479785;27;20101;-52
2022/01/19 16:33:28;;;;;;;43.95;28.85;;;;;;;;;;10479371;27;20082;-51
2022/01/19 16:38:27;;;;;;;43.50;30.75;;;;;;;;;;10477845;27;20105;-55
2022/01/19 16:43:26;;;;;;;42.65;26.77;;;;;;;;;;10478726;27;20073;-54
2022/01/19 16:48:26;;;;;;;36.90;29.05;;;;;;;;;;10480745;27;20081;-52
2022/01/19 16:53:25;;;;;;;54.65;30.65;;;;;;;;;;10480805;27;20071;-53
2022/01/19 16:58:23;;;;;;;45.05;29.70;;;;;;;;;;10479608;27;20085;-54
2022/01/19 17:03:22;;;;;;;54.15;33.88;;;;;;;;;;10480424;27;20066;-54
2022/01/19 17:08:21;;;;;;;52.33;35.05;;;;;;;;;;10479214;27;20104;-54
2022/01/19 17:13:32;;;;;;;71.65;42.08;;;;;;;;;;10481748;27;20050;-56
2022/01/19 17:18:31;;;;;;;44.35;35.90;;;;;;;;;;10488525;27;20046;-56
2022/01/19 17:23:30;;;;;;;46.30;35.05;;;;;;;;;;10487947;27;20043;-54
2022/01/19 17:28:29;;;;;;;64.85;43.28;;;;;;;;;;10488809;27;20077;-55
2022/01/19 17:33:27;;;;;;;68.00;47.17;;;;;;;;;;10486992;27;20039;-53
2022/01/19 17:38:25;;;;;;;82.93;50.70;;;;;;;;;;10487807;27;20058;-55
2022/01/19 17:43:25;;;;;;;50.38;33.83;;;;;;;;;;10487866;27;20039;-54
2022/01/19 17:48:39;;;;;;;45.53;28.40;;;;;;;;;;10487600;27;20077;-54
2022/01/19 17:53:37;;;;;;;31.90;19.75;;;;;;;;;;10487597;27;20385;-51
2022/01/19 17:58:37;;;;;;;43.03;23.10;;;;;;;;;;10486240;27;20043;-56
2022/01/19 18:03:35;;;;;;;43.78;26.42;;;;;;;;;;10487332;27;20039;-52
2022/01/19 18:08:36;;;;;;;32.25;21.90;;;;;;;;;;10467480;27;20054;-50
2022/01/19 18:13:35;;;;;;;40.88;27.10;;;;;;;;;;10485845;27;20039;-50
2022/01/19 18:18:34;;;;;;;63.13;30.92;;;;;;;;;;10485936;27;20092;-52
2022/01/19 18:23:33;;;;;;;111.15;52.90;;;;;;;;;;10475565;27;20078;-52
2022/01/19 18:28:33;;;;;;;88.90;42.08;;;;;;;;;;10480044;27;20451;-53
2022/01/19 18:33:34;;;;;;;147.95;63.97;;;;;;;;;;10481937;27;20066;-49
2022/01/19 18:38:38;;;;;;;28.38;15.93;;;;;;;;;;10483328;27;20047;-51
2022/01/19 18:43:37;;;;;;;29.52;16.85;;;;;;;;;;10460748;27;20066;-50
2022/01/19 18:48:37;;;;;;;37.88;24.45;;;;;;;;;;10445281;27;20078;-55
2022/01/19 18:53:36;;;;;;;29.95;19.52;;;;;;;;;;10451530;27;20073;-50
2022/01/19 18:58:37;;;;;;;27.67;17.02;;;;;;;;;;10456366;27;20058;-55
2022/01/19 19:03:35;;;;;;;29.20;18.98;;;;;;;;;;10447134;27;20113;-56
2022/01/19 19:08:34;;;;;;;27.08;16.33;;;;;;;;;;10458579;27;20078;-53
2022/01/19 19:13:32;;;;;;;24.52;16.30;;;;;;;;;;10466001;27;20069;-52
2022/01/19 19:18:32;;;;;;;23.98;14.30;;;;;;;;;;10431974;27;20071;-54
2022/01/19 19:23:30;;;;;;;20.20;12.85;;;;;;;;;;10448725;27;20070;-53
2022/01/19 19:28:29;;;;;;;19.55;12.10;;;;;;;;;;10445157;27;20071;-53
2022/01/19 19:33:27;;;;;;;21.60;11.48;;;;;;;;;;10452230;27;20063;-52
2022/01/19 19:38:27;;;;;;;28.27;19.27;;;;;;;;;;10442610;27;20078;-53
2022/01/19 19:43:25;;;;;;;20.08;11.70;;;;;;;;;;10466055;27;20507;-50
2022/01/19 19:48:23;;;;;;;20.13;13.77;;;;;;;;;;10458632;27;20069;-54
2022/01/19 19:53:22;;;;;;;17.13;10.68;;;;;;;;;;10455361;27;20054;-57
2022/01/19 19:58:22;;;;;;;24.08;16.77;;;;;;;;;;10443055;27;20066;-53
2022/01/19 20:03:20;;;;;;;29.70;19.50;;;;;;;;;;10452679;27;20070;-52
2022/01/19 20:08:22;;;;;;;14.95;9.93;;;;;;;;;;10445344;27;20066;-53
2022/01/19 20:13:23;;;;;;;21.45;11.13;;;;;;;;;;10468881;27;20538;-54
2022/01/19 20:18:21;;;;;;;15.18;10.10;;;;;;;;;;10447592;27;20522;-57
2022/01/19 20:23:23;;;;;;;16.33;10.55;;;;;;;;;;10468175;27;20062;-52
2022/01/19 20:28:23;;;;;;;20.63;11.68;;;;;;;;;;10465201;27;20111;-54
2022/01/19 20:33:21;;;;;;;17.25;10.70;;;;;;;;;;10467950;27;20515;-53
2022/01/19 20:38:20;;;;;;;18.52;10.20;;;;;;;;;;10455240;27;20070;-50
2022/01/19 20:43:18;;;;;;;23.40;11.07;;;;;;;;;;10445292;27;20081;-57
2022/01/19 20:48:18;;;;;;;19.70;12.90;;;;;;;;;;10449401;27;20074;-54
2022/01/19 20:53:16;;;;;;;99.85;53.33;;;;;;;;;;10439829;27;20093;-54
2022/01/19 20:58:15;;;;;;;84.40;45.42;;;;;;;;;;10438271;27;20440;-52
2022/01/19 21:03:13;;;;;;;64.22;35.88;;;;;;;;;;10458408;27;20484;-49
2022/01/19 21:08:13;;;;;;;113.25;64.70;;;;;;;;;;10460891;27;20081;-50
2022/01/19 21:13:12;;;;;;;111.75;59.35;;;;;;;;;;10462615;27;20400;-51
2022/01/19 21:18:10;;;;;;;114.80;62.83;;;;;;;;;;10465383;27;20066;-49
2022/01/19 21:23:12;;;;;;;75.43;46.47;;;;;;;;;;10453442;27;20487;-54
2022/01/19 21:28:15;;;;;;;137.60;71.85;;;;;;;;;;10452803;27;20063;-54
2022/01/19 21:33:13;;;;;;;123.97;63.42;;;;;;;;;;10440877;27;20071;-53
2022/01/19 21:38:11;;;;;;;184.10;97.30;;;;;;;;;;10446580;27;20436;-55
2022/01/19 21:43:10;;;;;;;111.20;59.55;;;;;;;;;;10465569;27;20069;-49
2022/01/19 21:48:10;;;;;;;209.13;107.78;;;;;;;;;;10444150;27;20085;-53
2022/01/19 21:53:08;;;;;;;164.18;81.35;;;;;;;;;;10436368;28;20065;-54
2022/01/19 21:58:06;;;;;;;125.82;64.72;;;;;;;;;;10435954;27;20106;-52
2022/01/19 22:03:05;;;;;;;118.63;63.65;;;;;;;;;;10444112;27;20523;-54
2022/01/19 22:08:06;;;;;;;124.40;60.90;;;;;;;;;;10445097;27;20062;-54
2022/01/19 22:13:05;;;;;;;177.80;79.00;;;;;;;;;;10444893;27;20902;-55
2022/01/19 22:18:04;;;;;;;130.30;67.47;;;;;;;;;;10468907;27;20062;-53
2022/01/19 22:23:03;;;;;;;55.35;25.27;;;;;;;;;;10446117;27;20462;-52
2022/01/19 22:28:03;;;;;;;27.13;14.55;;;;;;;;;;10443018;27;20074;-53
2022/01/19 22:33:01;;;;;;;120.28;58.38;;;;;;;;;;10480682;27;20078;-52
2022/01/19 22:37:59;;;;;;;112.60;55.83;;;;;;;;;;10440120;27;20079;-54
2022/01/19 22:42:57;;;;;;;102.70;50.83;;;;;;;;;;10457001;27;20081;-51
2022/01/19 22:47:57;;;;;;;74.95;39.22;;;;;;;;;;10446816;27;20081;-52
2022/01/19 22:52:56;;;;;;;44.38;21.92;;;;;;;;;;10442894;27;20458;-55
2022/01/19 22:57:54;;;;;;;52.28;28.70;;;;;;;;;;10446204;27;20415;-52
2022/01/19 23:02:53;;;;;;;61.45;33.35;;;;;;;;;;10423953;27;20046;-51
2022/01/19 23:07:53;;;;;;;66.75;39.03;;;;;;;;;;10436259;27;20082;-54
2022/01/19 23:12:53;;;;;;;46.35;25.05;;;;;;;;;;10438667;27;20519;-52
2022/01/19 23:17:51;;;;;;;45.42;26.73;;;;;;;;;;10438776;27;20058;-54
2022/01/19 23:22:49;;;;;;;58.10;30.67;;;;;;;;;;10478877;27;20403;-56
2022/01/19 23:27:49;;;;;;;73.68;39.05;;;;;;;;;;10477473;27;20043;-52
2022/01/19 23:32:52;;;;;;;33.85;20.83;;;;;;;;;;10438940;27;20071;-49
2022/01/19 23:38:06;;;;;;;31.67;19.35;;;;;;;;;;10435338;27;20082;-52
2022/01/19 23:48:24;;;;;;;34.75;23.40;;;;;;;;;;10440190;27;20204;-54
2022/01/19 23:53:23;;;;;;;48.03;29.27;;;;;;;;;;10444320;27;20070;-52
2022/01/19 23:58:26;;;;;;;36.65;23.70;;;;;;;;;;10439051;27;20077;-49
